PWSweather.com
Personal Weather Stations
Station Observations
KMAMEDFI2
Medfield, MA 02052

Medfield, MA 02052

Lat: 42.1900822, Lon: -71.3296889

Elevation: 138

Station Type: Rainwise WS MK-III

http://www.medfieldweather.com

High Low Average
Temperature 40.9°F4.9°C 29.6°F-1.3°C 37.2°F2.9°C
Dew Point 39.8°F4.3°C 28.1°F-2.2°C 36.0°F2.2°C
Winds 6.9 mph 11.1 kmh Calm Calm 1.0 mph SW1.6 kmh SW
Wind Gusts 9.2 mph14.8 kmh -- 2.0 mph3.2 kmh
Humidity 96% 94% 95%
Pressure 29.74 in1007.1 mb 29.46 in997.6 mb -
Precipitation 1.22 in31.0 mm - -
Hour Temp Dew Point Humidity Winds Wind Gusts Pressure Precip Precip Rate Daily Precip Total
12:00 AM 34.1°F1.2°C 32.3°F0.2°C 93% Calm Calm -- 29.77 in1008.1 mb - 0.00 in0.0 mm 0.00 in0.0 mm
12:10 AM 34.2°F1.2°C 32.7°F0.4°C 94% Calm Calm -- 29.77 in1008.1 mb - 0.00 in0.0 mm 0.00 in0.0 mm
12:20 AM 33.9°F1.1°C 32.4°F0.2°C 94% Calm Calm -- 29.76 in1007.8 mb - 0.00 in0.0 mm 0.00 in0.0 mm
12:30 AM 33.5°F0.8°C 32.2°F0.1°C 95% Calm Calm -- 29.76 in1007.8 mb - 0.00 in0.0 mm 0.00 in0.0 mm
12:40 AM 33.1°F0.6°C 31.9°F-0.1°C 95% Calm Calm -- 29.75 in1007.5 mb - 0.00 in0.0 mm 0.00 in0.0 mm
12:50 AM 33.2°F0.7°C 31.9°F-0.1°C 95% Calm Calm -- 29.75 in1007.5 mb - 0.00 in0.0 mm 0.00 in0.0 mm
01:00 AM 33.0°F0.6°C 31.7°F-0.2°C 95% Calm Calm -- 29.74 in1007.1 mb - 0.00 in0.0 mm 0.00 in0.0 mm
01:10 AM 33.2°F0.7°C 31.9°F-0.1°C 95% Calm Calm -- 29.74 in1007.1 mb - 0.00 in0.0 mm 0.00 in0.0 mm
01:20 AM 33.5°F0.8°C 32.2°F0.1°C 95% Calm Calm -- 29.74 in1007.1 mb - 0.00 in0.0 mm 0.00 in0.0 mm
01:30 AM 34.1°F1.2°C 32.9°F0.5°C 95% Calm Calm -- 29.74 in1007.1 mb - 0.00 in0.0 mm 0.00 in0.0 mm
01:40 AM 34.5°F1.4°C 33.2°F0.7°C 95% Calm Calm 2.3 mph3.7 kmh 29.74 in1007.1 mb - 0.00 in0.0 mm 0.00 in0.0 mm
01:50 AM 35.5°F1.9°C 34.2°F1.2°C 95% 2.3 mph SSW3.7 kmh SSW 2.3 mph3.7 kmh 29.74 in1007.1 mb - 0.00 in0.0 mm 0.00 in0.0 mm
02:00 AM 35.9°F2.2°C 34.6°F1.4°C 95% 2.3 mph ESE3.7 kmh ESE 2.3 mph3.7 kmh 29.73 in1006.8 mb - 0.00 in0.0 mm 0.00 in0.0 mm
02:10 AM 36.3°F2.4°C 34.7°F1.5°C 94% Calm Calm -- 29.72 in1006.4 mb - 0.00 in0.0 mm 0.00 in0.0 mm
02:20 AM 35.9°F2.2°C 34.3°F1.3°C 94% Calm Calm -- 29.72 in1006.4 mb - 0.00 in0.0 mm 0.00 in0.0 mm
02:30 AM 35.8°F2.1°C 34.5°F1.4°C 95% Calm Calm -- 29.72 in1006.4 mb - 0.00 in0.0 mm 0.00 in0.0 mm
02:40 AM 35.7°F2.1°C 34.4°F1.3°C 95% Calm Calm -- 29.72 in1006.4 mb - 0.00 in0.0 mm 0.00 in0.0 mm
02:50 AM 35.4°F1.9°C 34.1°F1.2°C 95% Calm Calm -- 29.72 in1006.4 mb - 0.00 in0.0 mm 0.00 in0.0 mm
03:00 AM 35.8°F2.1°C 34.5°F1.4°C 95% 2.3 mph SE3.7 kmh SE 2.3 mph3.7 kmh 29.72 in1006.4 mb - 0.00 in0.0 mm 0.00 in0.0 mm
03:10 AM 36.3°F2.4°C 35.0°F1.7°C 95% 1.2 mph SSE1.9 kmh SSE -- 29.71 in1006.1 mb - 0.00 in0.0 mm 0.00 in0.0 mm
03:20 AM 36.5°F2.5°C 35.2°F1.8°C 95% 2.3 mph ENE3.7 kmh ENE 2.3 mph3.7 kmh 29.72 in1006.4 mb - 0.00 in0.0 mm 0.00 in0.0 mm
03:30 AM 36.7°F2.6°C 35.4°F1.9°C 95% Calm Calm -- 29.72 in1006.4 mb - 0.00 in0.0 mm 0.00 in0.0 mm
03:40 AM 36.6°F2.6°C 35.3°F1.8°C 95% Calm Calm -- 29.70 in1005.8 mb - 0.00 in0.0 mm 0.00 in0.0 mm
03:50 AM 36.2°F2.3°C 34.9°F1.6°C 95% Calm Calm -- 29.71 in1006.1 mb - 0.00 in0.0 mm 0.00 in0.0 mm
04:00 AM 35.9°F2.2°C 34.6°F1.4°C 95% Calm Calm -- 29.71 in1006.1 mb - 0.00 in0.0 mm 0.00 in0.0 mm
04:10 AM 35.9°F2.2°C 34.6°F1.4°C 95% Calm Calm -- 29.71 in1006.1 mb - 0.00 in0.0 mm 0.00 in0.0 mm
04:20 AM 35.9°F2.2°C 34.6°F1.4°C 95% Calm Calm -- 29.71 in1006.1 mb - 0.00 in0.0 mm 0.00 in0.0 mm
04:30 AM 35.9°F2.2°C 34.6°F1.4°C 95% Calm Calm -- 29.70 in1005.8 mb - 0.00 in0.0 mm 0.00 in0.0 mm
04:40 AM 36.1°F2.3°C 34.8°F1.6°C 95% Calm Calm -- 29.70 in1005.8 mb - 0.00 in0.0 mm 0.00 in0.0 mm
04:50 AM 36.1°F2.3°C 34.8°F1.6°C 95% Calm Calm -- 29.69 in1005.4 mb - 0.00 in0.0 mm 0.00 in0.0 mm
05:00 AM 36.5°F2.5°C 35.2°F1.8°C 95% Calm Calm -- 29.68 in1005.1 mb - 0.00 in0.0 mm 0.00 in0.0 mm
05:10 AM 36.9°F2.7°C 35.6°F2.0°C 95% Calm Calm -- 29.67 in1004.7 mb - 0.00 in0.0 mm 0.00 in0.0 mm
05:20 AM 37.1°F2.8°C 35.8°F2.1°C 95% Calm Calm -- 29.67 in1004.7 mb - 0.00 in0.0 mm 0.00 in0.0 mm
05:30 AM 37.1°F2.8°C 35.8°F2.1°C 95% Calm Calm -- 29.66 in1004.4 mb - 0.01 in0.3 mm 0.01 in0.3 mm
05:40 AM 37.1°F2.8°C 35.8°F2.1°C 95% Calm Calm -- 29.66 in1004.4 mb - 0.01 in0.3 mm 0.01 in0.3 mm
05:50 AM 37.1°F2.8°C 35.8°F2.1°C 95% Calm Calm -- 29.66 in1004.4 mb - 0.02 in0.5 mm 0.02 in0.5 mm
06:00 AM 37.1°F2.8°C 35.8°F2.1°C 95% Calm Calm -- 29.65 in1004.1 mb - 0.02 in0.5 mm 0.02 in0.5 mm
06:10 AM 37.2°F2.9°C 35.9°F2.2°C 95% Calm Calm -- 29.65 in1004.1 mb - 0.03 in0.8 mm 0.03 in0.8 mm
06:20 AM 37.2°F2.9°C 35.9°F2.2°C 95% Calm Calm -- 29.65 in1004.1 mb - 0.04 in1.0 mm 0.04 in1.0 mm
06:30 AM 37.4°F3.0°C 36.1°F2.3°C 95% Calm Calm -- 29.65 in1004.1 mb - 0.05 in1.3 mm 0.05 in1.3 mm
06:40 AM 37.5°F3.1°C 36.2°F2.3°C 95% Calm Calm -- 29.64 in1003.7 mb - 0.05 in1.3 mm 0.06 in1.5 mm
06:50 AM 37.7°F3.2°C 36.4°F2.4°C 95% Calm Calm -- 29.64 in1003.7 mb - 0.04 in1.0 mm 0.06 in1.5 mm
07:00 AM 37.7°F3.2°C 36.4°F2.4°C 95% Calm Calm -- 29.64 in1003.7 mb - 0.04 in1.0 mm 0.06 in1.5 mm
07:10 AM 37.7°F3.2°C 36.4°F2.4°C 95% Calm Calm -- 29.65 in1004.1 mb - 0.05 in1.3 mm 0.08 in2.0 mm
07:20 AM 37.7°F3.2°C 36.4°F2.4°C 95% Calm Calm -- 29.64 in1003.7 mb - 0.04 in1.0 mm 0.08 in2.0 mm
07:30 AM 37.8°F3.2°C 36.5°F2.5°C 95% Calm Calm -- 29.64 in1003.7 mb - 0.03 in0.8 mm 0.08 in2.0 mm
07:40 AM 37.7°F3.2°C 36.4°F2.4°C 95% Calm Calm -- 29.65 in1004.1 mb - 0.03 in0.8 mm 0.09 in2.3 mm
07:50 AM 37.7°F3.2°C 36.4°F2.4°C 95% Calm Calm -- 29.64 in1003.7 mb - 0.06 in1.5 mm 0.12 in3.0 mm
08:00 AM 37.6°F3.1°C 36.3°F2.4°C 95% Calm Calm -- 29.64 in1003.7 mb - 0.08 in2.0 mm 0.14 in3.6 mm
08:10 AM 37.6°F3.1°C 36.3°F2.4°C 95% Calm Calm -- 29.64 in1003.7 mb - 0.09 in2.3 mm 0.16 in4.1 mm
08:20 AM 37.7°F3.2°C 36.4°F2.4°C 95% Calm Calm -- 29.64 in1003.7 mb - 0.10 in2.5 mm 0.18 in4.6 mm
08:30 AM 37.8°F3.2°C 36.5°F2.5°C 95% Calm Calm -- 29.64 in1003.7 mb - 0.13 in3.3 mm 0.21 in5.3 mm
08:40 AM 37.9°F3.3°C 36.6°F2.6°C 95% Calm Calm -- 29.64 in1003.7 mb - 0.14 in3.6 mm 0.23 in5.8 mm
08:50 AM 37.9°F3.3°C 36.6°F2.6°C 95% Calm Calm -- 29.64 in1003.7 mb - 0.12 in3.0 mm 0.24 in6.1 mm
09:00 AM 37.9°F3.3°C 36.6°F2.6°C 95% Calm Calm -- 29.64 in1003.7 mb - 0.12 in3.0 mm 0.26 in6.6 mm
09:10 AM 38.0°F3.3°C 37.0°F2.8°C 96% Calm Calm -- 29.64 in1003.7 mb - 0.11 in2.8 mm 0.27 in6.9 mm
09:20 AM 38.2°F3.4°C 37.2°F2.9°C 96% Calm Calm -- 29.64 in1003.7 mb - 0.09 in2.3 mm 0.27 in6.9 mm
09:30 AM 38.4°F3.6°C 37.4°F3.0°C 96% Calm Calm -- 29.65 in1004.1 mb - 0.09 in2.3 mm 0.29 in7.4 mm
09:40 AM 38.5°F3.6°C 37.5°F3.1°C 96% Calm Calm -- 29.65 in1004.1 mb - 0.09 in2.3 mm 0.31 in7.9 mm
09:50 AM 38.7°F3.7°C 37.7°F3.2°C 96% Calm Calm -- 29.64 in1003.7 mb - 0.08 in2.0 mm 0.32 in8.1 mm
10:00 AM 38.9°F3.8°C 37.9°F3.3°C 96% Calm Calm -- 29.64 in1003.7 mb - 0.07 in1.8 mm 0.33 in8.4 mm
10:10 AM 38.9°F3.8°C 37.9°F3.3°C 96% 1.2 mph NW1.9 kmh NW 2.3 mph3.7 kmh 29.64 in1003.7 mb - 0.08 in2.0 mm 0.35 in8.9 mm
10:20 AM 38.9°F3.8°C 37.9°F3.3°C 96% Calm Calm -- 29.64 in1003.7 mb - 0.09 in2.3 mm 0.36 in9.1 mm
10:30 AM 39.3°F4.1°C 38.3°F3.5°C 96% Calm Calm 2.3 mph3.7 kmh 29.64 in1003.7 mb - 0.09 in2.3 mm 0.38 in9.7 mm
10:40 AM 39.6°F4.2°C 38.6°F3.7°C 96% 2.3 mph NE3.7 kmh NE 2.3 mph3.7 kmh 29.64 in1003.7 mb - 0.08 in2.0 mm 0.39 in9.9 mm
10:50 AM 39.8°F4.3°C 38.8°F3.8°C 96% 1.2 mph E1.9 kmh E 1.2 mph1.9 kmh 29.64 in1003.7 mb - 0.09 in2.3 mm 0.41 in10.4 mm
11:00 AM 39.9°F4.4°C 38.9°F3.8°C 96% 1.2 mph NNE1.9 kmh NNE 1.2 mph1.9 kmh 29.62 in1003.0 mb - 0.08 in2.0 mm 0.41 in10.4 mm
11:10 AM 40.1°F4.5°C 39.1°F3.9°C 96% Calm Calm -- 29.62 in1003.0 mb - 0.07 in1.8 mm 0.42 in10.7 mm
11:20 AM 40.2°F4.6°C 39.2°F4.0°C 96% 2.3 mph N3.7 kmh N 2.3 mph3.7 kmh 29.61 in1002.7 mb - 0.07 in1.8 mm 0.43 in10.9 mm
11:30 AM 40.3°F4.6°C 39.3°F4.1°C 96% 1.2 mph SE1.9 kmh SE 2.3 mph3.7 kmh 29.60 in1002.4 mb - 0.06 in1.5 mm 0.43 in10.9 mm
11:40 AM 40.4°F4.7°C 39.4°F4.1°C 96% 2.3 mph NE3.7 kmh NE 2.3 mph3.7 kmh 29.59 in1002.0 mb - 0.04 in1.0 mm 0.43 in10.9 mm
11:50 AM 40.5°F4.7°C 39.4°F4.1°C 96% 1.2 mph SSE1.9 kmh SSE 4.6 mph7.4 kmh 29.58 in1001.7 mb - 0.03 in0.8 mm 0.43 in10.9 mm
12:00 PM 40.8°F4.9°C 39.7°F4.3°C 96% 2.3 mph NW3.7 kmh NW 2.3 mph3.7 kmh 29.58 in1001.7 mb - 0.03 in0.8 mm 0.44 in11.2 mm
12:10 PM 40.9°F4.9°C 39.8°F4.3°C 96% 2.3 mph ENE3.7 kmh ENE 2.3 mph3.7 kmh 29.57 in1001.4 mb - 0.02 in0.5 mm 0.44 in11.2 mm
12:20 PM 40.9°F4.9°C 39.8°F4.3°C 96% Calm Calm 2.3 mph3.7 kmh 29.57 in1001.4 mb - 0.01 in0.3 mm 0.44 in11.2 mm
12:30 PM 40.8°F4.9°C 39.7°F4.3°C 96% 2.3 mph ENE3.7 kmh ENE 2.3 mph3.7 kmh 29.56 in1001.0 mb - 0.01 in0.3 mm 0.44 in11.2 mm
12:40 PM 40.6°F4.8°C 39.5°F4.2°C 96% 2.3 mph E3.7 kmh E 4.6 mph7.4 kmh 29.54 in1000.3 mb - 0.01 in0.3 mm 0.44 in11.2 mm
12:50 PM 40.5°F4.7°C 39.4°F4.1°C 96% 2.3 mph W3.7 kmh W 2.3 mph3.7 kmh 29.54 in1000.3 mb - 0.01 in0.3 mm 0.44 in11.2 mm
01:00 PM 40.5°F4.7°C 39.4°F4.1°C 96% 2.3 mph E3.7 kmh E 2.3 mph3.7 kmh 29.53 in1000.0 mb - 0.00 in0.0 mm 0.44 in11.2 mm
01:10 PM 40.5°F4.7°C 39.4°F4.1°C 96% 2.3 mph WSW3.7 kmh WSW 2.3 mph3.7 kmh 29.52 in999.7 mb - 0.00 in0.0 mm 0.44 in11.2 mm
01:20 PM 40.6°F4.8°C 39.5°F4.2°C 96% 3.5 mph NW5.6 kmh NW 5.8 mph9.3 kmh 29.52 in999.7 mb - 0.01 in0.3 mm 0.45 in11.4 mm
01:30 PM 40.6°F4.8°C 39.5°F4.2°C 96% 2.3 mph N3.7 kmh N 2.3 mph3.7 kmh 29.52 in999.7 mb - 0.01 in0.3 mm 0.45 in11.4 mm
01:40 PM 40.5°F4.7°C 39.4°F4.1°C 96% 3.5 mph N5.6 kmh N 8.1 mph13.0 kmh 29.51 in999.3 mb - 0.01 in0.3 mm 0.45 in11.4 mm
01:50 PM 40.2°F4.6°C 39.2°F4.0°C 96% 1.2 mph N1.9 kmh N 2.3 mph3.7 kmh 29.50 in999.0 mb - 0.02 in0.5 mm 0.46 in11.7 mm
02:00 PM 39.9°F4.4°C 38.9°F3.8°C 96% 1.2 mph WNW1.9 kmh WNW 1.2 mph1.9 kmh 29.49 in998.6 mb - 0.02 in0.5 mm 0.46 in11.7 mm
02:10 PM 39.8°F4.3°C 38.8°F3.8°C 96% 3.5 mph ESE5.6 kmh ESE 5.8 mph9.3 kmh 29.48 in998.3 mb - 0.02 in0.5 mm 0.46 in11.7 mm
02:20 PM 39.7°F4.3°C 38.7°F3.7°C 96% 3.5 mph SE5.6 kmh SE 4.6 mph7.4 kmh 29.48 in998.3 mb - 0.02 in0.5 mm 0.47 in11.9 mm
02:30 PM 39.7°F4.3°C 38.7°F3.7°C 96% 2.3 mph NNE3.7 kmh NNE 4.6 mph7.4 kmh 29.47 in998.0 mb - 0.02 in0.5 mm 0.47 in11.9 mm
02:40 PM 39.6°F4.2°C 38.6°F3.7°C 96% 1.2 mph SSW1.9 kmh SSW 1.2 mph1.9 kmh 29.47 in998.0 mb - 0.03 in0.8 mm 0.48 in12.2 mm
02:50 PM 39.3°F4.1°C 38.3°F3.5°C 96% 3.5 mph ENE5.6 kmh ENE 5.8 mph9.3 kmh 29.47 in998.0 mb - 0.02 in0.5 mm 0.48 in12.2 mm
03:00 PM 39.1°F3.9°C 38.1°F3.4°C 96% 4.6 mph ENE7.4 kmh ENE 6.9 mph11.1 kmh 29.47 in998.0 mb - 0.03 in0.8 mm 0.49 in12.4 mm
03:10 PM 38.7°F3.7°C 37.7°F3.2°C 96% 3.5 mph NW5.6 kmh NW 5.8 mph9.3 kmh 29.46 in997.6 mb - 0.05 in1.3 mm 0.51 in13.0 mm
03:20 PM 38.5°F3.6°C 37.5°F3.1°C 96% 1.2 mph N1.9 kmh N 2.3 mph3.7 kmh 29.46 in997.6 mb - 0.06 in1.5 mm 0.52 in13.2 mm
03:30 PM 38.5°F3.6°C 37.5°F3.1°C 96% 2.3 mph NNW3.7 kmh NNW 4.6 mph7.4 kmh 29.46 in997.6 mb - 0.07 in1.8 mm 0.54 in13.7 mm
03:40 PM 38.4°F3.6°C 37.4°F3.0°C 96% 1.2 mph N1.9 kmh N 6.9 mph11.1 kmh 29.46 in997.6 mb - 0.12 in3.0 mm 0.60 in15.2 mm
03:50 PM 38.4°F3.6°C 37.4°F3.0°C 96% 2.3 mph NE3.7 kmh NE 2.3 mph3.7 kmh 29.46 in997.6 mb - 0.18 in4.6 mm 0.66 in16.8 mm
04:00 PM 38.4°F3.6°C 37.4°F3.0°C 96% 3.5 mph SSW5.6 kmh SSW 5.8 mph9.3 kmh 29.46 in997.6 mb - 0.26 in6.6 mm 0.75 in19.1 mm
04:10 PM 38.4°F3.6°C 37.4°F3.0°C 96% 1.2 mph WNW1.9 kmh WNW 2.3 mph3.7 kmh 29.46 in997.6 mb - 0.30 in7.6 mm 0.81 in20.6 mm
04:20 PM 38.3°F3.5°C 37.3°F2.9°C 96% 2.3 mph SE3.7 kmh SE 2.3 mph3.7 kmh 29.46 in997.6 mb - 0.32 in8.1 mm 0.84 in21.3 mm
04:30 PM 38.3°F3.5°C 37.3°F2.9°C 96% 4.6 mph N7.4 kmh N 8.1 mph13.0 kmh 29.46 in997.6 mb - 0.35 in8.9 mm 0.89 in22.6 mm
04:40 PM 38.2°F3.4°C 37.2°F2.9°C 96% 3.5 mph NW5.6 kmh NW 5.8 mph9.3 kmh 29.46 in997.6 mb - 0.34 in8.6 mm 0.93 in23.6 mm
04:50 PM 38.0°F3.3°C 37.0°F2.8°C 96% 3.5 mph W5.6 kmh W 4.6 mph7.4 kmh 29.46 in997.6 mb - 0.32 in8.1 mm 0.97 in24.6 mm
05:00 PM 37.9°F3.3°C 36.6°F2.6°C 95% 3.5 mph SW5.6 kmh SW 5.8 mph9.3 kmh 29.46 in997.6 mb - 0.04 in1.0 mm 1.00 in25.4 mm
05:10 PM 37.9°F3.3°C 36.6°F2.6°C 95% 4.6 mph NW7.4 kmh NW 8.1 mph13.0 kmh 29.46 in997.6 mb - 0.04 in1.0 mm 1.03 in26.2 mm
05:20 PM 37.9°F3.3°C 36.6°F2.6°C 95% 2.3 mph WSW3.7 kmh WSW 2.3 mph3.7 kmh 29.46 in997.6 mb - 0.04 in1.0 mm 1.07 in27.2 mm
05:30 PM 37.9°F3.3°C 36.6°F2.6°C 95% 4.6 mph NE7.4 kmh NE 8.1 mph13.0 kmh 29.47 in998.0 mb - 0.02 in0.5 mm 1.09 in27.7 mm
05:40 PM 37.8°F3.2°C 36.5°F2.5°C 95% 4.6 mph W7.4 kmh W 9.2 mph14.8 kmh 29.48 in998.3 mb - 0.02 in0.5 mm 1.10 in27.9 mm
05:50 PM 37.7°F3.2°C 36.4°F2.4°C 95% 2.3 mph WSW3.7 kmh WSW 8.1 mph13.0 kmh 29.48 in998.3 mb - 0.01 in0.3 mm 1.11 in28.2 mm
06:00 PM 37.5°F3.1°C 36.2°F2.3°C 95% 3.5 mph WNW5.6 kmh WNW 5.8 mph9.3 kmh 29.48 in998.3 mb - 0.01 in0.3 mm 1.12 in28.4 mm
06:10 PM 37.5°F3.1°C 36.2°F2.3°C 95% 2.3 mph S3.7 kmh S 2.3 mph3.7 kmh 29.48 in998.3 mb - 0.02 in0.5 mm 1.14 in29.0 mm
06:20 PM 37.4°F3.0°C 36.1°F2.3°C 95% 1.2 mph SW1.9 kmh SW 2.3 mph3.7 kmh 29.48 in998.3 mb - 0.01 in0.3 mm 1.15 in29.2 mm
06:30 PM 37.3°F2.9°C 36.0°F2.2°C 95% 1.2 mph NNW1.9 kmh NNW 2.3 mph3.7 kmh 29.48 in998.3 mb - 0.00 in0.0 mm 1.15 in29.2 mm
06:40 PM 37.2°F2.9°C 35.9°F2.2°C 95% 6.9 mph N11.1 kmh N 8.1 mph13.0 kmh 29.48 in998.3 mb - 0.01 in0.3 mm 1.16 in29.5 mm
06:50 PM 37.2°F2.9°C 35.9°F2.2°C 95% 3.5 mph NW5.6 kmh NW 8.1 mph13.0 kmh 29.49 in998.6 mb - 0.01 in0.3 mm 1.17 in29.7 mm
07:00 PM 37.2°F2.9°C 35.9°F2.2°C 95% 3.5 mph NW5.6 kmh NW 5.8 mph9.3 kmh 29.50 in999.0 mb - 0.01 in0.3 mm 1.18 in30.0 mm
07:10 PM 37.2°F2.9°C 35.9°F2.2°C 95% 3.5 mph NW5.6 kmh NW 2.3 mph3.7 kmh 29.50 in999.0 mb - 0.02 in0.5 mm 1.19 in30.2 mm
07:20 PM 37.2°F2.9°C 35.9°F2.2°C 95% 2.3 mph NNW3.7 kmh NNW 2.3 mph3.7 kmh 29.50 in999.0 mb - 0.00 in0.0 mm 1.19 in30.2 mm
07:30 PM 37.1°F2.8°C 35.8°F2.1°C 95% 1.2 mph WSW1.9 kmh WSW 2.3 mph3.7 kmh 29.50 in999.0 mb - 0.01 in0.3 mm 1.20 in30.5 mm
07:40 PM 37.0°F2.8°C 35.7°F2.1°C 95% 3.5 mph WNW5.6 kmh WNW 2.3 mph3.7 kmh 29.51 in999.3 mb - 0.00 in0.0 mm 1.20 in30.5 mm
07:50 PM 37.0°F2.8°C 35.7°F2.1°C 95% 3.5 mph NNW5.6 kmh NNW 6.9 mph11.1 kmh 29.51 in999.3 mb - 0.00 in0.0 mm 1.20 in30.5 mm
08:00 PM 36.9°F2.7°C 35.6°F2.0°C 95% 2.3 mph W3.7 kmh W 2.3 mph3.7 kmh 29.52 in999.7 mb - 0.01 in0.3 mm 1.21 in30.7 mm
08:10 PM 36.9°F2.7°C 35.6°F2.0°C 95% 3.5 mph SW5.6 kmh SW 8.1 mph13.0 kmh 29.52 in999.7 mb - 0.00 in0.0 mm 1.21 in30.7 mm
08:20 PM 36.9°F2.7°C 35.6°F2.0°C 95% 2.3 mph NE3.7 kmh NE 2.3 mph3.7 kmh 29.52 in999.7 mb - 0.00 in0.0 mm 1.21 in30.7 mm
08:30 PM 36.9°F2.7°C 35.6°F2.0°C 95% 2.3 mph WNW3.7 kmh WNW 2.3 mph3.7 kmh 29.52 in999.7 mb - 0.01 in0.3 mm 1.22 in31.0 mm
08:40 PM 36.9°F2.7°C 35.6°F2.0°C 95% 2.3 mph N3.7 kmh N 8.1 mph13.0 kmh 29.53 in1000.0 mb - 0.00 in0.0 mm 1.22 in31.0 mm
08:50 PM 36.8°F2.7°C 35.5°F1.9°C 95% 1.2 mph NW1.9 kmh NW 2.3 mph3.7 kmh 29.53 in1000.0 mb - 0.00 in0.0 mm 1.22 in31.0 mm
09:00 PM 36.8°F2.7°C 35.5°F1.9°C 95% 3.5 mph W5.6 kmh W 8.1 mph13.0 kmh 29.53 in1000.0 mb - 0.00 in0.0 mm 1.22 in31.0 mm
09:10 PM 36.8°F2.7°C 35.5°F1.9°C 95% 1.2 mph ESE1.9 kmh ESE 5.8 mph9.3 kmh 29.54 in1000.3 mb - 0.00 in0.0 mm 1.22 in31.0 mm
09:20 PM 36.7°F2.6°C 35.4°F1.9°C 95% 3.5 mph N5.6 kmh N 2.3 mph3.7 kmh 29.54 in1000.3 mb - 0.00 in0.0 mm 1.22 in31.0 mm
09:30 PM 36.6°F2.6°C 35.3°F1.8°C 95% 1.2 mph SSE1.9 kmh SSE 1.2 mph1.9 kmh 29.54 in1000.3 mb - 0.00 in0.0 mm 1.22 in31.0 mm
09:40 PM 36.4°F2.4°C 35.1°F1.7°C 95% 2.3 mph WSW3.7 kmh WSW 4.6 mph7.4 kmh 29.54 in1000.3 mb - 0.00 in0.0 mm 1.22 in31.0 mm
09:50 PM 36.3°F2.4°C 35.0°F1.7°C 95% 4.6 mph WSW7.4 kmh WSW 8.1 mph13.0 kmh 29.54 in1000.3 mb - 0.00 in0.0 mm 1.22 in31.0 mm
10:00 PM 36.3°F2.4°C 35.0°F1.7°C 95% 2.3 mph W3.7 kmh W 2.3 mph3.7 kmh 29.54 in1000.3 mb - 0.00 in0.0 mm 1.22 in31.0 mm
10:10 PM 36.2°F2.3°C 34.9°F1.6°C 95% 3.5 mph NW5.6 kmh NW 5.8 mph9.3 kmh 29.54 in1000.3 mb - 0.00 in0.0 mm 1.22 in31.0 mm
10:20 PM 35.9°F2.2°C 34.6°F1.4°C 95% 1.2 mph WSW1.9 kmh WSW 4.6 mph7.4 kmh 29.54 in1000.3 mb - 0.00 in0.0 mm 1.22 in31.0 mm
10:30 PM 35.3°F1.8°C 34.0°F1.1°C 95% 2.3 mph W3.7 kmh W 2.3 mph3.7 kmh 29.53 in1000.0 mb - 0.00 in0.0 mm 1.22 in31.0 mm
10:40 PM 34.9°F1.6°C 33.6°F0.9°C 95% Calm Calm 2.3 mph3.7 kmh 29.52 in999.7 mb - 0.00 in0.0 mm 1.22 in31.0 mm
10:50 PM 34.5°F1.4°C 33.2°F0.7°C 95% 2.3 mph WSW3.7 kmh WSW 2.3 mph3.7 kmh 29.52 in999.7 mb - 0.00 in0.0 mm 1.22 in31.0 mm
11:00 PM 34.1°F1.2°C 32.8°F0.4°C 95% 1.2 mph WSW1.9 kmh WSW 2.3 mph3.7 kmh 29.54 in1000.3 mb - 0.00 in0.0 mm 1.22 in31.0 mm
11:10 PM 33.7°F0.9°C 32.4°F0.2°C 95% 3.5 mph WSW5.6 kmh WSW 2.3 mph3.7 kmh 29.54 in1000.3 mb - 0.00 in0.0 mm 1.22 in31.0 mm
11:20 PM 33.4°F0.8°C 32.1°F0.1°C 95% 1.2 mph WSW1.9 kmh WSW 2.3 mph3.7 kmh 29.54 in1000.3 mb - 0.00 in0.0 mm 1.22 in31.0 mm
11:30 PM 33.1°F0.6°C 31.8°F-0.1°C 95% Calm Calm 2.3 mph3.7 kmh 29.55 in1000.7 mb - 0.00 in0.0 mm 1.22 in31.0 mm
11:40 PM 32.5°F0.3°C 31.2°F-0.4°C 95% 1.2 mph WSW1.9 kmh WSW 1.2 mph1.9 kmh 29.55 in1000.7 mb - 0.00 in0.0 mm 1.22 in31.0 mm
11:50 PM 31.9°F-0.1°C 30.6°F-0.8°C 95% 1.2 mph WSW1.9 kmh WSW 1.2 mph1.9 kmh 29.55 in1000.7 mb - 0.00 in0.0 mm 1.22 in31.0 mm